createdAt,value
2018-08-09T00:01:10.366Z,72.30
2018-08-09T00:03:39.053Z,72.80
2018-08-09T00:06:07.741Z,72.90
2018-08-09T00:08:36.369Z,73.30
2018-08-09T00:11:05.015Z,74.00
2018-08-09T00:13:33.549Z,74.20
2018-08-09T00:16:02.094Z,74.70
2018-08-09T00:18:30.691Z,74.80
2018-08-09T00:20:59.254Z,75.50
2018-08-09T00:23:27.940Z,75.60
2018-08-09T00:26:00.319Z,76.00
2018-08-09T00:28:28.901Z,75.70
2018-08-09T00:30:57.589Z,75.30
2018-08-09T00:33:26.174Z,76.70
2018-08-09T00:35:54.795Z,75.60
2018-08-09T00:38:23.551Z,75.60
2018-08-09T00:40:52.339Z,75.50
2018-08-09T00:43:20.925Z,75.90
2018-08-09T00:45:49.510Z,75.60
2018-08-09T00:48:18.197Z,75.90
2018-08-09T00:50:47.113Z,75.70
2018-08-09T00:53:15.676Z,76.00
2018-08-09T00:55:44.261Z,76.20
2018-08-09T00:58:13.153Z,76.00
2018-08-09T01:03:35.106Z,76.50
2018-08-09T01:06:03.691Z,76.90
2018-08-09T01:08:32.239Z,77.20
2018-08-09T01:11:01.273Z,77.20
2018-08-09T01:13:29.857Z,77.00
2018-08-09T01:15:58.442Z,77.00
2018-08-09T01:18:27.029Z,77.40
2018-08-09T01:20:55.547Z,77.30
2018-08-09T01:23:24.198Z,76.90
2018-08-09T01:25:52.754Z,76.90
2018-08-09T01:28:21.369Z,76.50
2018-08-09T01:30:49.954Z,75.60
2018-08-09T01:33:18.508Z,75.80
2018-08-09T01:35:47.025Z,75.60
2018-08-09T01:38:15.486Z,75.60
2018-08-09T01:40:44.091Z,76.30
2018-08-09T01:43:23.839Z,76.70
2018-08-09T01:45:52.423Z,77.00
2018-08-09T01:48:21.009Z,77.40
2018-08-09T01:50:49.492Z,77.00
2018-08-09T01:53:18.077Z,76.30
2018-08-09T01:55:46.662Z,76.80
2018-08-09T01:58:15.249Z,77.20
2018-08-09T02:00:43.836Z,77.20
2018-08-09T02:03:12.419Z,77.40
2018-08-09T02:05:40.904Z,78.30
2018-08-09T02:08:09.590Z,78.70
2018-08-09T02:10:38.277Z,78.70
2018-08-09T02:13:06.863Z,78.70
2018-08-09T02:15:35.550Z,78.50
2018-08-09T02:18:04.238Z,78.80
2018-08-09T02:20:32.823Z,78.40
2018-08-09T02:23:01.408Z,78.60
2018-08-09T02:25:29.891Z,79.40
2018-08-09T02:27:58.477Z,79.10
2018-08-09T02:30:26.961Z,81.00
2018-08-09T02:32:55.444Z,80.70
2018-08-09T02:35:24.030Z,80.70
2018-08-09T02:37:52.511Z,80.40
2018-08-09T02:40:21.029Z,80.10
2018-08-09T02:42:49.690Z,79.90
2018-08-09T02:45:18.370Z,80.10
2018-08-09T02:47:46.956Z,80.50
2018-08-09T02:50:15.442Z,80.50
2018-08-09T02:52:44.126Z,80.80
2018-08-09T02:55:12.712Z,80.60
2018-08-09T02:57:41.296Z,80.90
2018-08-09T03:00:09.985Z,81.20
2018-08-09T03:02:38.673Z,81.50
2018-08-09T03:05:07.364Z,80.60
2018-08-09T03:07:35.906Z,80.70
2018-08-09T03:10:05.043Z,80.80
2018-08-09T03:12:33.628Z,81.00
2018-08-09T03:15:02.419Z,80.60
2018-08-09T03:17:31.004Z,81.40
2018-08-09T03:19:59.590Z,81.60
2018-08-09T03:22:28.177Z,80.60
2018-08-09T03:24:56.760Z,80.00
2018-08-09T03:27:25.241Z,80.10
2018-08-09T03:29:53.827Z,80.30
2018-08-09T03:32:22.336Z,80.10
2018-08-09T03:34:50.896Z,79.80
2018-08-09T03:37:19.379Z,79.70
2018-08-09T03:39:47.965Z,79.40
2018-08-09T03:42:16.550Z,79.30
2018-08-09T03:44:45.135Z,79.60
2018-08-09T03:47:13.826Z,80.00
2018-08-09T03:49:42.408Z,80.00
2018-08-09T03:52:10.994Z,80.40
2018-08-09T03:54:39.681Z,80.30
2018-08-09T03:57:08.168Z,80.10
2018-08-09T03:59:36.753Z,80.40
2018-08-09T04:02:05.642Z,80.10
2018-08-09T04:04:34.228Z,80.50
2018-08-09T04:07:02.813Z,80.40
2018-08-09T04:09:31.398Z,80.90
2018-08-09T04:11:59.866Z,80.80
2018-08-09T04:14:28.467Z,81.00
2018-08-09T04:16:57.052Z,80.30
2018-08-09T04:19:25.638Z,80.40
2018-08-09T04:21:55.964Z,80.30
2018-08-09T04:24:24.958Z,80.20
2018-08-09T04:26:53.545Z,80.60
2018-08-09T04:29:22.028Z,80.30
2018-08-09T04:31:50.817Z,80.00
2018-08-09T04:34:19.403Z,79.40
2018-08-09T04:36:48.094Z,79.70
2018-08-09T04:39:16.676Z,79.90
2018-08-09T04:41:45.437Z,79.60
2018-08-09T04:44:14.051Z,79.60
2018-08-09T04:46:42.844Z,79.30
2018-08-09T04:49:11.542Z,79.60
2018-08-09T04:51:40.115Z,79.90
2018-08-09T04:54:08.756Z,78.40
2018-08-09T04:56:37.322Z,78.20
2018-08-09T04:59:06.076Z,77.60
2018-08-09T05:01:34.767Z,78.00
2018-08-09T05:04:03.557Z,78.10
2018-08-09T05:06:32.183Z,77.50
2018-08-09T05:09:00.827Z,78.00
2018-08-09T05:11:29.516Z,78.20
2018-08-09T05:13:58.203Z,78.40
2018-08-09T05:16:26.891Z,78.10
2018-08-09T05:18:55.582Z,78.30
2018-08-09T05:21:39.218Z,78.20
2018-08-09T05:24:07.489Z,77.60
2018-08-09T05:26:35.835Z,77.60
2018-08-09T05:29:04.237Z,76.10
2018-08-09T05:31:32.528Z,74.20
2018-08-09T05:34:00.833Z,73.60
2018-08-09T05:36:29.250Z,73.50
2018-08-09T05:38:57.582Z,72.50
2018-08-09T05:41:25.924Z,72.00
2018-08-09T05:43:54.242Z,71.90
2018-08-09T05:46:22.497Z,71.60
2018-08-09T05:48:50.760Z,72.20
2018-08-09T05:51:19.049Z,71.20
2018-08-09T05:53:47.316Z,70.90
2018-08-09T05:56:15.597Z,70.30
2018-08-09T05:58:43.968Z,70.20
2018-08-09T06:01:12.349Z,69.40
2018-08-09T06:03:40.666Z,68.70
2018-08-09T06:06:09.041Z,67.90
2018-08-09T06:08:37.314Z,67.60
2018-08-09T06:11:11.397Z,67.80
2018-08-09T06:13:39.658Z,67.90
2018-08-09T06:16:07.953Z,67.60
2018-08-09T06:18:36.209Z,67.80
2018-08-09T06:21:04.490Z,68.20
2018-08-09T06:23:32.788Z,68.20
2018-08-09T06:26:01.040Z,68.20
2018-08-09T06:28:29.400Z,67.80
2018-08-09T06:31:10.068Z,67.50
2018-08-09T06:33:38.340Z,67.00
2018-08-09T06:36:06.689Z,67.10
2018-08-09T06:38:34.950Z,66.70
2018-08-09T06:41:03.230Z,66.80
2018-08-09T06:43:31.493Z,67.00
2018-08-09T06:45:59.834Z,66.70
2018-08-09T06:48:28.094Z,66.30
2018-08-09T06:50:56.341Z,66.50
2018-08-09T06:53:24.670Z,66.30
2018-08-09T06:55:52.950Z,65.70
2018-08-09T06:58:21.212Z,65.40
2018-08-09T07:00:49.508Z,64.20
2018-08-09T07:03:18.874Z,64.10
2018-08-09T07:05:47.109Z,63.90
2018-08-09T07:08:15.617Z,63.80
2018-08-09T07:10:43.868Z,63.40
2018-08-09T07:13:12.138Z,63.60
2018-08-09T07:15:40.409Z,62.70
2018-08-09T07:18:08.763Z,62.80
2018-08-09T07:20:36.993Z,62.20
2018-08-09T07:23:05.263Z,61.90
2018-08-09T07:25:33.517Z,61.80
2018-08-09T07:28:01.850Z,61.40
2018-08-09T07:30:30.139Z,60.90
2018-08-09T07:32:58.416Z,59.30
2018-08-09T07:35:26.683Z,58.40
2018-08-09T07:37:54.944Z,59.40
2018-08-09T07:40:23.181Z,59.10
2018-08-09T07:42:51.469Z,58.80
2018-08-09T07:45:19.764Z,58.90
2018-08-09T07:47:48.037Z,59.20
2018-08-09T07:50:16.307Z,59.10
2018-08-09T07:52:44.610Z,59.20
2018-08-09T07:55:12.866Z,60.20
2018-08-09T07:57:41.124Z,59.90
2018-08-09T08:00:11.220Z,61.20
2018-08-09T08:02:39.533Z,64.90
2018-08-09T08:05:08.101Z,67.40
2018-08-09T08:07:36.636Z,67.10
2018-08-09T08:10:06.297Z,69.90
2018-08-09T08:12:34.590Z,67.20
2018-08-09T08:15:03.006Z,65.70
2018-08-09T08:17:31.251Z,65.10
2018-08-09T08:19:59.537Z,64.30
2018-08-09T08:22:27.889Z,63.80
2018-08-09T08:24:56.157Z,63.20
2018-08-09T08:27:24.437Z,63.10
2018-08-09T08:29:52.692Z,63.00
2018-08-09T08:32:20.941Z,62.70
2018-08-09T08:34:49.269Z,62.40
2018-08-09T08:37:18.598Z,62.30
2018-08-09T08:39:46.856Z,61.80
2018-08-09T08:42:15.189Z,60.90
2018-08-09T08:44:43.564Z,61.40
2018-08-09T08:47:11.848Z,60.40
2018-08-09T08:49:40.235Z,60.70
2018-08-09T08:52:08.539Z,59.80
2018-08-09T08:54:36.805Z,60.40
2018-08-09T08:57:05.118Z,60.20
2018-08-09T08:59:33.369Z,60.50
2018-08-09T09:02:01.608Z,60.90
2018-08-09T09:04:29.951Z,60.70
2018-08-09T09:06:58.420Z,60.60
2018-08-09T09:09:26.706Z,60.40
2018-08-09T09:11:55.113Z,59.00
2018-08-09T09:14:23.833Z,58.00
2018-08-09T09:16:52.206Z,58.30
2018-08-09T09:19:20.527Z,56.70
2018-08-09T09:21:48.844Z,56.60
2018-08-09T09:24:17.077Z,56.40
2018-08-09T09:29:13.669Z,56.70
2018-08-09T09:31:42.018Z,56.20
2018-08-09T09:34:10.261Z,56.10
2018-08-09T09:36:39.040Z,56.30
2018-08-09T09:39:08.710Z,56.20
2018-08-09T09:41:40.414Z,56.60
2018-08-09T09:44:08.997Z,56.50
2018-08-09T09:46:38.580Z,56.40
2018-08-09T09:49:07.916Z,56.80
2018-08-09T09:51:36.261Z,56.20
2018-08-09T09:54:05.485Z,55.60
2018-08-09T09:56:33.964Z,56.10
2018-08-09T09:59:02.237Z,55.60
2018-08-09T10:01:33.704Z,55.40
2018-08-09T10:04:02.369Z,55.10
2018-08-09T10:06:30.716Z,55.10
2018-08-09T10:08:58.956Z,54.60
2018-08-09T10:11:27.489Z,54.70
2018-08-09T10:13:55.782Z,53.60
2018-08-09T10:16:24.149Z,54.20
2018-08-09T10:19:02.784Z,54.50
2018-08-09T10:21:31.924Z,54.10
2018-08-09T10:24:00.150Z,53.90
2018-08-09T10:26:28.351Z,54.00
2018-08-09T10:28:56.557Z,54.10
2018-08-09T10:31:24.766Z,53.80
2018-08-09T10:33:53.000Z,53.80
2018-08-09T10:36:21.240Z,53.90
2018-08-09T10:38:49.484Z,53.20
2018-08-09T10:41:17.734Z,52.80
2018-08-09T10:43:45.977Z,52.60
2018-08-09T10:46:14.169Z,52.20
2018-08-09T10:48:42.620Z,52.10
2018-08-09T10:51:10.927Z,52.10
2018-08-09T10:53:39.176Z,52.20
2018-08-09T10:56:07.380Z,52.20
2018-08-09T10:58:35.674Z,52.60
2018-08-09T11:01:03.893Z,52.30
2018-08-09T11:03:32.128Z,52.10
2018-08-09T11:06:00.385Z,52.20
2018-08-09T11:08:28.581Z,52.10
2018-08-09T11:10:56.806Z,51.10
2018-08-09T11:13:25.068Z,50.60
2018-08-09T11:15:53.271Z,50.40
2018-08-09T11:18:21.469Z,49.90
2018-08-09T11:20:49.762Z,49.20
2018-08-09T11:23:17.971Z,49.30
2018-08-09T11:25:46.166Z,49.10
2018-08-09T11:28:14.367Z,49.20
2018-08-09T11:30:42.593Z,49.10
2018-08-09T11:33:10.804Z,49.50
2018-08-09T11:35:39.046Z,49.60
2018-08-09T11:38:07.204Z,49.70
2018-08-09T11:40:35.428Z,49.60
2018-08-09T11:43:03.704Z,49.30
2018-08-09T11:45:31.880Z,49.50
2018-08-09T11:48:00.136Z,49.90
2018-08-09T11:50:28.358Z,49.80
2018-08-09T11:52:56.717Z,50.40
2018-08-09T11:55:25.225Z,50.80
2018-08-09T11:57:53.569Z,50.90
2018-08-09T12:00:21.867Z,51.10
2018-08-09T12:02:50.102Z,51.20
2018-08-09T12:05:18.369Z,50.80
2018-08-09T12:07:46.641Z,50.60
2018-08-09T12:10:15.205Z,50.40
2018-08-09T12:12:43.612Z,49.70
2018-08-09T12:15:12.064Z,49.90
2018-08-09T12:17:40.605Z,49.60
2018-08-09T12:20:08.947Z,49.40
2018-08-09T12:22:37.269Z,49.20
2018-08-09T12:25:05.641Z,49.30
2018-08-09T12:27:34.005Z,49.00
2018-08-09T12:30:02.693Z,49.30
2018-08-09T12:32:30.965Z,49.70
2018-08-09T12:34:59.217Z,50.20
2018-08-09T12:37:27.485Z,50.60
2018-08-09T12:39:55.701Z,50.70
2018-08-09T12:42:23.936Z,50.40
2018-08-09T12:44:52.422Z,50.80
2018-08-09T12:47:20.644Z,51.00
2018-08-09T12:49:49.092Z,51.30
2018-08-09T12:52:17.396Z,51.40
2018-08-09T12:54:45.663Z,51.50
2018-08-09T12:57:14.037Z,51.90
2018-08-09T12:59:42.394Z,52.30
2018-08-09T13:02:10.716Z,52.60
2018-08-09T13:04:39.133Z,52.60
2018-08-09T13:07:07.473Z,52.90
2018-08-09T13:09:35.781Z,53.00
2018-08-09T13:12:04.264Z,53.00
2018-08-09T13:14:32.493Z,52.90
2018-08-09T13:17:00.778Z,52.40
2018-08-09T13:19:29.100Z,52.30
2018-08-09T13:21:57.449Z,52.30
2018-08-09T13:24:25.677Z,52.00
2018-08-09T13:26:54.505Z,51.70
2018-08-09T13:29:22.945Z,51.50
2018-08-09T13:31:51.265Z,51.40
2018-08-09T13:34:19.645Z,51.50
2018-08-09T13:36:48.265Z,51.70
2018-08-09T13:39:16.515Z,51.90
2018-08-09T13:41:45.662Z,52.10
2018-08-09T13:44:14.273Z,52.10
2018-08-09T13:46:43.550Z,51.80
2018-08-09T13:49:11.746Z,57.50
2018-08-09T13:51:40.036Z,60.80
2018-08-09T13:54:08.333Z,65.50
2018-08-09T13:56:36.979Z,65.50
2018-08-09T13:59:05.219Z,69.50
2018-08-09T14:01:33.410Z,67.70
2018-08-09T14:04:01.871Z,71.40
2018-08-09T14:06:30.125Z,78.70
2018-08-09T14:08:58.390Z,82.10
2018-08-09T14:11:27.370Z,83.20
2018-08-09T14:13:55.623Z,82.10
2018-08-09T14:16:24.101Z,84.10
2018-08-09T14:18:52.380Z,83.70
2018-08-09T14:21:20.793Z,83.40
2018-08-09T14:23:49.733Z,83.30
2018-08-09T14:26:17.985Z,85.10
2018-08-09T14:28:46.265Z,86.00
2018-08-09T14:31:14.521Z,85.80
2018-08-09T14:33:43.412Z,86.70
2018-08-09T14:36:11.653Z,87.00
2018-08-09T14:38:39.939Z,88.10
2018-08-09T14:41:08.236Z,88.00
2018-08-09T14:43:36.589Z,87.30
2018-08-09T14:46:04.841Z,87.80
2018-08-09T14:48:33.154Z,87.80
2018-08-09T14:51:01.401Z,89.20
2018-08-09T14:53:29.694Z,88.30
2018-08-09T14:55:57.940Z,89.30
2018-08-09T14:58:26.512Z,90.20
2018-08-09T15:00:54.799Z,89.50
2018-08-09T15:03:23.081Z,89.30
2018-08-09T15:05:51.428Z,90.00
2018-08-09T15:08:19.640Z,90.00
2018-08-09T15:10:47.949Z,89.10
2018-08-09T15:13:16.144Z,90.00
2018-08-09T15:15:44.390Z,89.00
2018-08-09T15:18:12.641Z,90.10
2018-08-09T15:20:40.951Z,90.40
2018-08-09T15:23:09.136Z,88.60
2018-08-09T15:25:37.385Z,88.50
2018-08-09T15:28:06.079Z,88.30
2018-08-09T15:30:34.391Z,89.40
2018-08-09T15:33:02.642Z,88.50
2018-08-09T15:35:30.838Z,88.00
2018-08-09T15:37:59.263Z,87.20
2018-08-09T15:40:27.433Z,85.80
2018-08-09T15:42:55.652Z,85.30
2018-08-09T15:45:23.861Z,83.90
2018-08-09T15:47:52.301Z,84.60
2018-08-09T15:50:21.543Z,83.00
2018-08-09T15:52:49.785Z,82.80
2018-08-09T15:55:18.504Z,81.10
2018-08-09T15:57:46.825Z,80.40
2018-08-09T16:00:18.812Z,79.70
2018-08-09T16:02:47.025Z,80.40
2018-08-09T16:05:15.329Z,79.90
2018-08-09T16:07:43.804Z,79.90
2018-08-09T16:10:13.841Z,78.80
2018-08-09T16:12:42.465Z,78.00
2018-08-09T16:15:12.700Z,77.60
2018-08-09T16:17:41.032Z,77.60
2018-08-09T16:20:10.380Z,76.90
2018-08-09T16:22:41.328Z,75.70
2018-08-09T16:25:13.087Z,74.90
2018-08-09T16:27:41.482Z,74.90
2018-08-09T16:30:17.959Z,75.20
2018-08-09T16:32:46.385Z,76.00
2018-08-09T16:35:15.081Z,74.30
2018-08-09T16:37:44.375Z,73.60
2018-08-09T16:40:16.705Z,74.30
2018-08-09T16:42:45.077Z,73.60
2018-08-09T16:45:14.964Z,73.00
2018-08-09T16:47:43.220Z,72.50
2018-08-09T16:50:17.086Z,72.00
2018-08-09T16:52:46.032Z,72.30
2018-08-09T16:55:15.065Z,71.40
2018-08-09T16:57:43.322Z,71.80
2018-08-09T17:00:15.272Z,71.30
2018-08-09T17:02:43.551Z,71.80
2018-08-09T17:05:17.133Z,71.10
2018-08-09T17:07:45.571Z,71.20
2018-08-09T17:10:15.777Z,70.30
2018-08-09T17:12:43.967Z,69.80
2018-08-09T17:15:13.997Z,69.50
2018-08-09T17:17:43.983Z,69.70
2018-08-09T17:20:26.264Z,69.20
2018-08-09T17:22:54.535Z,69.40
2018-08-09T17:25:22.762Z,69.20
2018-08-09T17:27:51.255Z,69.40
2018-08-09T17:30:20.903Z,68.80
2018-08-09T17:32:49.242Z,68.30
2018-08-09T17:35:18.116Z,68.10
2018-08-09T17:37:46.558Z,68.30
2018-08-09T17:40:17.827Z,67.60
2018-08-09T17:42:46.909Z,67.60
2018-08-09T17:45:15.370Z,67.00
2018-08-09T17:47:44.110Z,67.00
2018-08-09T17:50:12.469Z,66.80
2018-08-09T17:52:40.759Z,66.50
2018-08-09T17:55:12.070Z,66.00
2018-08-09T17:57:41.661Z,65.60
2018-08-09T18:00:12.433Z,65.00
2018-08-09T18:02:40.685Z,64.50
2018-08-09T18:05:09.679Z,64.90
2018-08-09T18:07:37.908Z,64.50
2018-08-09T18:10:09.084Z,64.80
2018-08-09T18:12:37.292Z,64.50
2018-08-09T18:15:06.085Z,64.50
2018-08-09T18:17:34.294Z,65.00
2018-08-09T18:20:04.867Z,65.20
2018-08-09T18:22:33.089Z,65.30
2018-08-09T18:25:01.360Z,65.40
2018-08-09T18:27:29.529Z,65.80
2018-08-09T18:29:57.913Z,65.60
2018-08-09T18:32:26.200Z,65.70
2018-08-09T18:34:54.597Z,66.10
2018-08-09T18:37:22.988Z,66.10
2018-08-09T18:39:51.317Z,66.50
2018-08-09T18:42:19.584Z,67.00
2018-08-09T18:44:47.834Z,68.70
2018-08-09T18:47:16.030Z,71.70
2018-08-09T18:49:44.229Z,74.10
2018-08-09T18:52:12.647Z,76.50
2018-08-09T18:54:40.892Z,74.60
2018-08-09T18:57:10.271Z,72.50
2018-08-09T18:59:44.453Z,72.50
2018-08-09T19:02:12.703Z,73.50
2018-08-09T19:04:40.941Z,74.40
2018-08-09T19:07:09.244Z,73.60
2018-08-09T19:09:37.599Z,74.40
2018-08-09T19:12:05.943Z,75.40
2018-08-09T19:14:34.372Z,75.40
2018-08-09T19:17:02.540Z,75.70
2018-08-09T19:19:30.731Z,76.20
2018-08-09T19:21:58.988Z,76.80
2018-08-09T19:24:27.285Z,77.10
2018-08-09T19:27:30.188Z,76.10
2018-08-09T19:29:58.723Z,75.00
2018-08-09T19:32:27.016Z,74.30
2018-08-09T19:34:58.689Z,73.80
2018-08-09T19:37:26.935Z,73.40
2018-08-09T19:39:55.515Z,72.90
2018-08-09T19:42:23.881Z,72.80
2018-08-09T19:44:52.352Z,72.50
2018-08-09T19:47:20.698Z,72.10
2018-08-09T19:49:49.111Z,71.80
2018-08-09T19:52:17.372Z,72.40
2018-08-09T19:54:45.596Z,72.00
2018-08-09T19:57:13.916Z,72.00
2018-08-09T19:59:42.236Z,71.30
2018-08-09T20:02:10.594Z,71.00
2018-08-09T20:04:38.985Z,70.70
2018-08-09T20:07:07.297Z,69.40
2018-08-09T20:09:35.579Z,68.60
2018-08-09T20:12:03.978Z,68.80
2018-08-09T20:14:32.264Z,68.10
2018-08-09T20:17:00.583Z,68.50
2018-08-09T20:19:28.833Z,68.60
2018-08-09T20:21:57.035Z,69.10
2018-08-09T20:24:25.219Z,69.60
2018-08-09T20:26:53.409Z,69.70
2018-08-09T20:29:21.750Z,69.90
2018-08-09T20:31:50.032Z,69.70
2018-08-09T20:34:18.700Z,70.40
2018-08-09T20:36:46.929Z,70.90
2018-08-09T20:39:15.368Z,70.70
2018-08-09T20:41:43.640Z,70.60
2018-08-09T20:44:11.889Z,70.00
2018-08-09T20:46:40.181Z,69.60
2018-08-09T20:49:08.808Z,70.00
2018-08-09T20:51:37.214Z,70.00
2018-08-09T20:54:05.500Z,70.20
2018-08-09T20:56:33.912Z,70.20
2018-08-09T20:59:02.176Z,69.80
2018-08-09T21:01:30.447Z,69.70
2018-08-09T21:03:59.640Z,69.80
2018-08-09T21:06:32.316Z,69.90
2018-08-09T21:09:02.611Z,69.30
2018-08-09T21:11:30.869Z,69.10
2018-08-09T21:13:59.314Z,69.00
2018-08-09T21:16:31.287Z,69.20
2018-08-09T21:18:59.724Z,68.50
2018-08-09T21:21:28.054Z,68.50
2018-08-09T21:23:56.367Z,67.40
2018-08-09T21:26:24.937Z,67.30
2018-08-09T21:28:53.252Z,66.40
2018-08-09T21:31:21.475Z,66.50
2018-08-09T21:33:49.748Z,66.20
2018-08-09T21:36:18.024Z,65.90
2018-08-09T21:38:46.324Z,65.80
2018-08-09T21:41:14.758Z,65.10
2018-08-09T21:43:43.002Z,64.20
2018-08-09T21:46:11.185Z,64.40
2018-08-09T21:48:39.512Z,64.50
2018-08-09T21:51:07.828Z,65.00
2018-08-09T21:53:37.132Z,66.00
2018-08-09T21:56:05.549Z,65.30
2018-08-09T21:58:33.823Z,66.10
2018-08-09T22:01:04.243Z,66.30
2018-08-09T22:03:35.349Z,66.50
2018-08-09T22:06:08.843Z,67.20
2018-08-09T22:08:42.565Z,67.50
2018-08-09T22:11:17.655Z,68.20
2018-08-09T22:13:51.386Z,68.60
2018-08-09T22:16:25.058Z,69.40
2018-08-09T22:18:58.815Z,69.80
2018-08-09T22:21:32.430Z,70.00
2018-08-09T22:24:00.665Z,70.40
2018-08-09T22:26:29.003Z,71.20
2018-08-09T22:28:57.228Z,71.20
2018-08-09T22:31:25.574Z,71.40
2018-08-09T22:33:53.944Z,71.80
2018-08-09T22:36:22.249Z,71.60
2018-08-09T22:38:50.621Z,72.30
2018-08-09T22:41:18.836Z,72.20
2018-08-09T22:43:47.096Z,72.10
2018-08-09T22:46:15.346Z,73.00
2018-08-09T22:48:43.775Z,72.40
2018-08-09T22:51:11.972Z,72.40
2018-08-09T22:53:40.280Z,72.70
2018-08-09T22:56:08.525Z,73.00
2018-08-09T22:58:36.784Z,72.60
2018-08-09T23:01:05.444Z,72.80
2018-08-09T23:03:33.666Z,72.90
2018-08-09T23:06:02.319Z,73.10
2018-08-09T23:08:30.628Z,73.50
2018-08-09T23:10:58.833Z,73.10
2018-08-09T23:13:27.016Z,74.20
2018-08-09T23:15:55.263Z,74.00
2018-08-09T23:18:23.437Z,74.00
2018-08-09T23:20:51.717Z,74.70
2018-08-09T23:23:19.898Z,74.40
2018-08-09T23:25:48.139Z,74.70
2018-08-09T23:28:16.400Z,75.00
2018-08-09T23:30:44.687Z,75.30
2018-08-09T23:33:13.188Z,75.50
2018-08-09T23:35:41.475Z,76.10
2018-08-09T23:38:12.752Z,76.70
2018-08-09T23:40:40.896Z,77.40
2018-08-09T23:43:09.103Z,79.90
2018-08-09T23:45:37.353Z,82.30
2018-08-09T23:48:05.748Z,88.70
2018-08-09T23:50:33.965Z,82.90
2018-08-09T23:53:02.206Z,83.10
2018-08-09T23:55:30.602Z,83.00
2018-08-09T23:57:58.848Z,82.60
